Terminal Aerodrome Forecast
Issued by NWS Dodge City, KS

Home | Current Version | Previous Version | Graphics & Text | Print | Product List | Glossary Off
Versions: 1 2 3 4 5 6 7 8 9 10 11 12 13 14 15 16 17 18 19 20 21 22 23 24 25 26 27 28 29 30 31 32 33 34 35 36 37 38 39 40

000
FTUS43 KDDC 221132
TAFDDC
TAF
KDDC 221132Z 2212/2312 26011KT P6SM SCT250
     FM221500 29011KT P6SM SCT200
     FM221600 35013G21KT P6SM SCT250
     FM221900 36011KT P6SM SCT200
     FM222200 VRB06KT P6SM SCT250
     FM230000 10007KT P6SM SCT100=

USA.gov is the U.S. government's official web portal to all federal, state and local government web resources and services.